sensor_id;sensor_type;location;lat;lon;timestamp;pressure;altitude;pressure_sealevel;temperature;humidity
61474;BME280;53694;49.784;30.150;2023-11-21T00:00:27;99190.80;;;0.49;67.51
61474;BME280;53694;49.784;30.150;2023-11-21T00:01:29;99191.17;;;0.34;67.97
61474;BME280;53694;49.784;30.150;2023-11-21T00:02:30;99198.48;;;0.20;68.34
61474;BME280;53694;49.784;30.150;2023-11-21T00:03:32;99198.82;;;0.05;68.80
61474;BME280;53694;49.784;30.150;2023-11-21T00:04:33;99191.43;;;-0.04;69.33
61474;BME280;53694;49.784;30.150;2023-11-21T00:05:35;99190.03;;;-0.15;69.61
61474;BME280;53694;49.784;30.150;2023-11-21T00:06:37;99189.94;;;-0.23;70.09
61474;BME280;53694;49.784;30.150;2023-11-21T00:07:38;99195.23;;;-0.32;70.52
61474;BME280;53694;49.784;30.150;2023-11-21T00:08:40;99187.24;;;-0.37;70.90
61474;BME280;53694;49.784;30.150;2023-11-21T00:09:41;99186.63;;;-0.34;71.11
61474;BME280;53694;49.784;30.150;2023-11-21T00:11:01;99193.32;;;-0.18;71.03
61474;BME280;53694;49.784;30.150;2023-11-21T00:12:12;99194.67;;;0.21;70.37
61474;BME280;53694;49.784;30.150;2023-11-21T00:13:14;99191.18;;;1.02;68.63
61474;BME280;53694;49.784;30.150;2023-11-21T00:14:15;99191.18;;;1.02;68.63
61474;BME280;53694;49.784;30.150;2023-11-21T00:15:17;99188.05;;;1.39;67.47
61474;BME280;53694;49.784;30.150;2023-11-21T00:16:18;99187.22;;;1.70;66.40
61474;BME280;53694;49.784;30.150;2023-11-21T00:17:20;99182.02;;;1.82;65.56
61474;BME280;53694;49.784;30.150;2023-11-21T00:18:21;99183.13;;;1.81;65.07
61474;BME280;53694;49.784;30.150;2023-11-21T00:19:23;99182.31;;;1.72;65.34
61474;BME280;53694;49.784;30.150;2023-11-21T00:20:24;99186.90;;;1.63;66.02
61474;BME280;53694;49.784;30.150;2023-11-21T00:21:26;99198.63;;;1.49;66.40
61474;BME280;53694;49.784;30.150;2023-11-21T00:22:28;99195.52;;;1.34;66.60
61474;BME280;53694;49.784;30.150;2023-11-21T00:23:29;99196.53;;;1.15;66.44
61474;BME280;53694;49.784;30.150;2023-11-21T00:24:31;99199.14;;;0.98;66.87
61474;BME280;53694;49.784;30.150;2023-11-21T00:25:32;99196.00;;;0.82;67.52
61474;BME280;53694;49.784;30.150;2023-11-21T00:26:34;99196.86;;;0.69;68.49
61474;BME280;53694;49.784;30.150;2023-11-21T00:27:36;99188.97;;;0.59;68.83
61474;BME280;53694;49.784;30.150;2023-11-21T00:28:37;99192.52;;;0.45;68.55
61474;BME280;53694;49.784;30.150;2023-11-21T00:29:39;99187.95;;;0.32;68.74
61474;BME280;53694;49.784;30.150;2023-11-21T00:30:40;99194.19;;;0.19;68.72
61474;BME280;53694;49.784;30.150;2023-11-21T00:31:42;99195.81;;;0.06;68.86
61474;BME280;53694;49.784;30.150;2023-11-21T00:32:44;99199.81;;;-0.05;69.10
61474;BME280;53694;49.784;30.150;2023-11-21T00:33:46;99194.12;;;-0.17;69.38
61474;BME280;53694;49.784;30.150;2023-11-21T00:34:47;99201.63;;;-0.28;69.65
61474;BME280;53694;49.784;30.150;2023-11-21T00:35:48;99194.83;;;-0.39;69.93
61474;BME280;53694;49.784;30.150;2023-11-21T00:36:50;99190.12;;;-0.47;70.28
61474;BME280;53694;49.784;30.150;2023-11-21T00:37:52;99199.73;;;-0.55;70.75
61474;BME280;53694;49.784;30.150;2023-11-21T00:38:53;99196.30;;;-0.61;71.32
61474;BME280;53694;49.784;30.150;2023-11-21T00:39:55;99201.02;;;-0.53;72.33
61474;BME280;53694;49.784;30.150;2023-11-21T00:40:56;99201.42;;;-0.32;72.44
61474;BME280;53694;49.784;30.150;2023-11-21T00:41:58;99202.71;;;-0.02;71.66
61474;BME280;53694;49.784;30.150;2023-11-21T00:42:59;99200.27;;;0.38;70.87
61474;BME280;53694;49.784;30.150;2023-11-21T00:44:01;99201.53;;;0.77;69.77
61474;BME280;53694;49.784;30.150;2023-11-21T00:45:02;99196.22;;;1.17;68.89
61474;BME280;53694;49.784;30.150;2023-11-21T00:46:05;99190.36;;;1.55;67.75
61474;BME280;53694;49.784;30.150;2023-11-21T00:47:06;99196.05;;;1.84;66.53
61474;BME280;53694;49.784;30.150;2023-11-21T00:48:08;99194.50;;;2.00;66.17
61474;BME280;53694;49.784;30.150;2023-11-21T00:49:09;99203.42;;;2.01;65.62
61474;BME280;53694;49.784;30.150;2023-11-21T00:50:11;99203.70;;;1.91;65.19
61474;BME280;53694;49.784;30.150;2023-11-21T00:51:13;99208.27;;;1.73;64.45
61474;BME280;53694;49.784;30.150;2023-11-21T00:52:14;99201.33;;;1.49;64.41
61474;BME280;53694;49.784;30.150;2023-11-21T00:53:16;99201.67;;;1.25;64.71
61474;BME280;53694;49.784;30.150;2023-11-21T00:54:17;99207.11;;;1.03;65.33
61474;BME280;53694;49.784;30.150;2023-11-21T00:55:19;99209.52;;;0.82;65.80
61474;BME280;53694;49.784;30.150;2023-11-21T00:56:20;99214.78;;;0.65;66.83
61474;BME280;53694;49.784;30.150;2023-11-21T00:57:22;99202.72;;;0.48;67.89
61474;BME280;53694;49.784;30.150;2023-11-21T00:58:24;99205.16;;;0.36;68.43
61474;BME280;53694;49.784;30.150;2023-11-21T00:59:26;99198.88;;;0.27;68.83
61474;BME280;53694;49.784;30.150;2023-11-21T01:00:27;99207.18;;;0.17;69.11
61474;BME280;53694;49.784;30.150;2023-11-21T01:01:29;99202.80;;;0.07;69.60
61474;BME280;53694;49.784;30.150;2023-11-21T01:02:30;99205.41;;;-0.02;69.63
61474;BME280;53694;49.784;30.150;2023-11-21T01:03:32;99197.22;;;-0.10;70.37
61474;BME280;53694;49.784;30.150;2023-11-21T01:04:33;99197.64;;;-0.17;70.73
61474;BME280;53694;49.784;30.150;2023-11-21T01:05:35;99204.22;;;-0.23;71.53
61474;BME280;53694;49.784;30.150;2023-11-21T01:06:37;99209.63;;;-0.23;71.99
61474;BME280;53694;49.784;30.150;2023-11-21T01:07:38;99201.71;;;-0.06;72.00
61474;BME280;53694;49.784;30.150;2023-11-21T01:08:40;99202.17;;;0.24;71.79
61474;BME280;53694;49.784;30.150;2023-11-21T01:09:41;99211.70;;;0.58;70.37
61474;BME280;53694;49.784;30.150;2023-11-21T01:10:43;99208.14;;;0.93;69.42
61474;BME280;53694;49.784;30.150;2023-11-21T01:11:44;99206.95;;;1.31;68.74
61474;BME280;53694;49.784;30.150;2023-11-21T01:12:46;99201.88;;;1.69;68.19
61474;BME280;53694;49.784;30.150;2023-11-21T01:13:48;99207.55;;;1.98;66.94
61474;BME280;53694;49.784;30.150;2023-11-21T01:14:49;99206.95;;;2.10;65.54
61474;BME280;53694;49.784;30.150;2023-11-21T01:15:51;99205.19;;;2.06;64.47
61474;BME280;53694;49.784;30.150;2023-11-21T01:16:53;99206.91;;;1.93;64.32
61474;BME280;53694;49.784;30.150;2023-11-21T01:17:55;99205.88;;;1.71;64.21
61474;BME280;53694;49.784;30.150;2023-11-21T01:18:56;99211.18;;;1.45;64.28
61474;BME280;53694;49.784;30.150;2023-11-21T01:19:58;99209.42;;;1.18;64.71
61474;BME280;53694;49.784;30.150;2023-11-21T01:20:59;99221.66;;;0.93;65.56
61474;BME280;53694;49.784;30.150;2023-11-21T01:22:01;99222.77;;;0.70;66.48
61474;BME280;53694;49.784;30.150;2023-11-21T01:23:02;99219.41;;;0.50;67.54
61474;BME280;53694;49.784;30.150;2023-11-21T01:24:05;99225.17;;;0.35;68.13
61474;BME280;53694;49.784;30.150;2023-11-21T01:25:06;99217.38;;;0.20;69.08
61474;BME280;53694;49.784;30.150;2023-11-21T01:26:08;99212.01;;;0.06;69.28
61474;BME280;53694;49.784;30.150;2023-11-21T01:27:10;99207.22;;;-0.11;69.28
61474;BME280;53694;49.784;30.150;2023-11-21T01:28:11;99207.52;;;-0.26;69.58
61474;BME280;53694;49.784;30.150;2023-11-21T01:29:13;99209.42;;;-0.40;70.16
61474;BME280;53694;49.784;30.150;2023-11-21T01:30:15;99211.49;;;-0.51;71.14
61474;BME280;53694;49.784;30.150;2023-11-21T01:31:16;99214.59;;;-0.58;71.80
61474;BME280;53694;49.784;30.150;2023-11-21T01:32:18;99216.19;;;-0.57;72.12
61474;BME280;53694;49.784;30.150;2023-11-21T01:33:19;99205.92;;;-0.41;72.40
61474;BME280;53694;49.784;30.150;2023-11-21T01:34:21;99206.70;;;-0.13;71.88
61474;BME280;53694;49.784;30.150;2023-11-21T01:35:22;99205.98;;;0.23;70.75
61474;BME280;53694;49.784;30.150;2023-11-21T01:36:31;99211.70;;;0.58;69.85
61474;BME280;53694;49.784;30.150;2023-11-21T01:37:33;99210.05;;;0.93;68.83
61474;BME280;53694;49.784;30.150;2023-11-21T01:38:35;99207.74;;;1.31;67.64
61474;BME280;53694;49.784;30.150;2023-11-21T01:39:36;99208.37;;;1.59;66.50
61474;BME280;53694;49.784;30.150;2023-11-21T01:40:38;99204.91;;;1.67;65.80
61474;BME280;53694;49.784;30.150;2023-11-21T01:41:39;99215.55;;;1.64;65.69
61474;BME280;53694;49.784;30.150;2023-11-21T01:42:41;99214.72;;;1.55;65.91
61474;BME280;53694;49.784;30.150;2023-11-21T01:43:43;99208.61;;;1.40;65.95
61474;BME280;53694;49.784;30.150;2023-11-21T01:44:44;99216.61;;;1.23;66.35
61474;BME280;53694;49.784;30.150;2023-11-21T01:45:46;99221.75;;;1.02;66.57
61474;BME280;53694;49.784;30.150;2023-11-21T01:46:48;99222.52;;;0.80;66.87
61474;BME280;53694;49.784;30.150;2023-11-21T01:47:49;99221.11;;;0.60;67.39
61474;BME280;53694;49.784;30.150;2023-11-21T01:48:51;99223.94;;;0.41;67.99
61474;BME280;53694;49.784;30.150;2023-11-21T01:49:54;99226.00;;;0.22;68.57
61474;BME280;53694;49.784;30.150;2023-11-21T01:50:56;99216.61;;;0.06;69.17
61474;BME280;53694;49.784;30.150;2023-11-21T01:51:58;99214.42;;;-0.06;69.68
61474;BME280;53694;49.784;30.150;2023-11-21T01:53:00;99218.72;;;-0.19;70.12
61474;BME280;53694;49.784;30.150;2023-11-21T01:54:02;99214.02;;;-0.27;70.69
61474;BME280;53694;49.784;30.150;2023-11-21T01:55:05;99219.00;;;-0.34;71.02
61474;BME280;53694;49.784;30.150;2023-11-21T01:56:08;99215.23;;;-0.33;71.48
61474;BME280;53694;49.784;30.150;2023-11-21T01:57:09;99218.72;;;-0.19;71.21
61474;BME280;53694;49.784;30.150;2023-11-21T01:58:11;99216.02;;;0.09;70.80
61474;BME280;53694;49.784;30.150;2023-11-21T01:59:16;99219.34;;;0.42;70.25
61474;BME280;53694;49.784;30.150;2023-11-21T02:00:19;99228.12;;;0.84;70.23
61474;BME280;53694;49.784;30.150;2023-11-21T02:01:20;99219.50;;;1.27;68.93
61474;BME280;53694;49.784;30.150;2023-11-21T02:02:22;99214.25;;;1.61;66.67
61474;BME280;53694;49.784;30.150;2023-11-21T02:03:23;99211.53;;;1.92;65.51
61474;BME280;53694;49.784;30.150;2023-11-21T02:04:25;99209.33;;;2.12;64.68
61474;BME280;53694;49.784;30.150;2023-11-21T02:05:26;99212.06;;;2.20;64.61
61474;BME280;53694;49.784;30.150;2023-11-21T02:06:28;99207.59;;;2.16;64.11
61474;BME280;53694;49.784;30.150;2023-11-21T02:07:30;99199.11;;;1.91;63.91
61474;BME280;53694;49.784;30.150;2023-11-21T02:08:32;99206.05;;;1.75;63.97
61474;BME280;53694;49.784;30.150;2023-11-21T02:09:33;99208.02;;;1.52;64.66
61474;BME280;53694;49.784;30.150;2023-11-21T02:10:35;99216.50;;;1.28;65.45
61474;BME280;53694;49.784;30.150;2023-11-21T02:11:36;99213.50;;;1.07;66.37
61474;BME280;53694;49.784;30.150;2023-11-21T02:12:38;99213.39;;;0.90;67.23
61474;BME280;53694;49.784;30.150;2023-11-21T02:13:39;99222.45;;;0.71;67.52
61474;BME280;53694;49.784;30.150;2023-11-21T02:14:41;99219.41;;;0.50;67.82
61474;BME280;53694;49.784;30.150;2023-11-21T02:15:42;99216.56;;;0.33;68.71
61474;BME280;53694;49.784;30.150;2023-11-21T02:16:44;99224.20;;;0.17;69.01
61474;BME280;53694;49.784;30.150;2023-11-21T02:17:47;99221.02;;;0.02;69.60
61474;BME280;53694;49.784;30.150;2023-11-21T02:18:51;99221.03;;;-0.12;69.98
61474;BME280;53694;49.784;30.150;2023-11-21T02:19:52;99223.11;;;-0.23;70.80
61474;BME280;53694;49.784;30.150;2023-11-21T02:20:55;99226.02;;;-0.33;71.20
61474;BME280;53694;49.784;30.150;2023-11-21T02:21:57;99228.30;;;-0.40;71.53
61474;BME280;53694;49.784;30.150;2023-11-21T02:23:00;99234.80;;;-0.41;71.69
61474;BME280;53694;49.784;30.150;2023-11-21T02:24:02;99231.63;;;-0.30;71.45
61474;BME280;53694;49.784;30.150;2023-11-21T02:25:04;99226.32;;;-0.07;71.05
61474;BME280;53694;49.784;30.150;2023-11-21T02:26:05;99230.77;;;0.25;70.71
61474;BME280;53694;49.784;30.150;2023-11-21T02:27:07;99233.83;;;0.60;69.92
61474;BME280;53694;49.784;30.150;2023-11-21T02:28:08;99233.78;;;0.96;69.28
61474;BME280;53694;49.784;30.150;2023-11-21T02:29:10;99231.62;;;1.29;68.37
61474;BME280;53694;49.784;30.150;2023-11-21T02:30:12;99234.14;;;1.57;67.46
61474;BME280;53694;49.784;30.150;2023-11-21T02:31:14;99231.00;;;1.63;66.64
61474;BME280;53694;49.784;30.150;2023-11-21T02:32:16;99230.02;;;1.59;66.85
61474;BME280;53694;49.784;30.150;2023-11-21T02:33:17;99228.87;;;1.52;67.27
61474;BME280;53694;49.784;30.150;2023-11-21T02:34:19;99235.17;;;1.38;67.28
61474;BME280;53694;49.784;30.150;2023-11-21T02:35:21;99238.25;;;1.23;67.47
61474;BME280;53694;49.784;30.150;2023-11-21T02:36:23;99241.95;;;1.05;67.64
61474;BME280;53694;49.784;30.150;2023-11-21T02:37:24;99242.14;;;0.86;68.23
61474;BME280;53694;49.784;30.150;2023-11-21T02:38:25;99234.19;;;0.67;68.60
61474;BME280;53694;49.784;30.150;2023-11-21T02:39:27;99239.16;;;0.51;69.01
61474;BME280;53694;49.784;30.150;2023-11-21T02:40:29;99237.09;;;0.34;69.39
61474;BME280;53694;49.784;30.150;2023-11-21T02:41:30;99242.20;;;0.22;70.05
61474;BME280;53694;49.784;30.150;2023-11-21T02:42:32;99234.92;;;0.09;70.29
61474;BME280;53694;49.784;30.150;2023-11-21T02:43:33;99240.02;;;-0.04;70.30
61474;BME280;53694;49.784;30.150;2023-11-21T02:44:35;99241.72;;;-0.08;70.42
61474;BME280;53694;49.784;30.150;2023-11-21T02:45:36;99242.61;;;0.02;70.43
61474;BME280;53694;49.784;30.150;2023-11-21T02:46:38;99245.39;;;0.24;70.21
61474;BME280;53694;49.784;30.150;2023-11-21T02:47:39;99249.64;;;0.53;69.55
61474;BME280;53694;49.784;30.150;2023-11-21T02:48:41;99251.05;;;0.86;68.81
61474;BME280;53694;49.784;30.150;2023-11-21T02:49:42;99250.79;;;1.19;68.31
61474;BME280;53694;49.784;30.150;2023-11-21T02:50:44;99245.72;;;1.48;67.65
61474;BME280;53694;49.784;30.150;2023-11-21T02:51:45;99247.06;;;1.60;66.74
61474;BME280;53694;49.784;30.150;2023-11-21T02:52:47;99248.97;;;1.59;66.48
61474;BME280;53694;49.784;30.150;2023-11-21T02:53:49;99242.40;;;1.52;66.60
61474;BME280;53694;49.784;30.150;2023-11-21T02:54:50;99245.20;;;1.38;66.86
61474;BME280;53694;49.784;30.150;2023-11-21T02:55:52;99253.68;;;1.22;66.82
61474;BME280;53694;49.784;30.150;2023-11-21T02:56:53;99248.80;;;1.02;66.90
61474;BME280;53694;49.784;30.150;2023-11-21T02:57:55;99253.87;;;0.81;67.29
61474;BME280;53694;49.784;30.150;2023-11-21T02:58:56;99257.03;;;0.61;67.80
61474;BME280;53694;49.784;30.150;2023-11-21T02:59:58;99259.38;;;0.40;68.28
61474;BME280;53694;49.784;30.150;2023-11-21T03:01:00;99253.01;;;0.22;68.83
61474;BME280;53694;49.784;30.150;2023-11-21T03:02:01;99251.71;;;0.06;69.40
61474;BME280;53694;49.784;30.150;2023-11-21T03:03:03;99253.59;;;-0.09;69.96
61474;BME280;53694;49.784;30.150;2023-11-21T03:04:05;99250.10;;;-0.23;70.37
61474;BME280;53694;49.784;30.150;2023-11-21T03:05:07;99256.29;;;-0.36;70.70
61474;BME280;53694;49.784;30.150;2023-11-21T03:06:09;99252.16;;;-0.47;71.14
61474;BME280;53694;49.784;30.150;2023-11-21T03:07:11;99251.67;;;-0.49;71.46
61474;BME280;53694;49.784;30.150;2023-11-21T03:08:12;99250.38;;;-0.38;71.36
61474;BME280;53694;49.784;30.150;2023-11-21T03:09:13;99255.91;;;-0.16;71.17
61474;BME280;53694;49.784;30.150;2023-11-21T03:10:15;99248.80;;;0.16;70.74
61474;BME280;53694;49.784;30.150;2023-11-21T03:11:17;99257.55;;;0.49;69.99
61474;BME280;53694;49.784;30.150;2023-11-21T03:12:19;99260.88;;;0.82;68.93
61474;BME280;53694;49.784;30.150;2023-11-21T03:13:20;99259.35;;;1.12;68.06
61474;BME280;53694;49.784;30.150;2023-11-21T03:14:22;99257.13;;;1.37;67.50
61474;BME280;53694;49.784;30.150;2023-11-21T03:15:23;99261.80;;;1.45;66.80
61474;BME280;53694;49.784;30.150;2023-11-21T03:16:25;99265.91;;;1.42;67.14
61474;BME280;53694;49.784;30.150;2023-11-21T03:17:26;99276.68;;;1.34;67.24
61474;BME280;53694;49.784;30.150;2023-11-21T03:18:28;99271.34;;;1.20;67.29
61474;BME280;53694;49.784;30.150;2023-11-21T03:19:29;99272.30;;;1.02;67.46
61474;BME280;53694;49.784;30.150;2023-11-21T03:20:31;99275.50;;;0.81;67.68
61474;BME280;53694;49.784;30.150;2023-11-21T03:21:32;99272.14;;;0.62;68.13
61474;BME280;53694;49.784;30.150;2023-11-21T03:22:33;99269.39;;;0.39;68.53
61474;BME280;53694;49.784;30.150;2023-11-21T03:23:36;99268.21;;;0.18;68.96
61474;BME280;53694;49.784;30.150;2023-11-21T03:24:37;99258.61;;;-0.02;69.58
61474;BME280;53694;49.784;30.150;2023-11-21T03:25:39;99267.81;;;-0.17;70.26
61474;BME280;53694;49.784;30.150;2023-11-21T03:26:40;99270.20;;;-0.29;71.13
61474;BME280;53694;49.784;30.150;2023-11-21T03:27:42;99270.98;;;-0.42;71.52
61474;BME280;53694;49.784;30.150;2023-11-21T03:28:44;99272.36;;;-0.45;72.14
61474;BME280;53694;49.784;30.150;2023-11-21T03:29:45;99279.19;;;-0.34;72.28
61474;BME280;53694;49.784;30.150;2023-11-21T03:30:47;99268.20;;;-0.10;71.94
61474;BME280;53694;49.784;30.150;2023-11-21T03:31:48;99276.20;;;0.23;71.44
61474;BME280;53694;49.784;30.150;2023-11-21T03:32:50;99268.76;;;0.56;70.41
61474;BME280;53694;49.784;30.150;2023-11-21T03:33:52;99272.08;;;0.89;69.59
61474;BME280;53694;49.784;30.150;2023-11-21T03:34:55;99269.44;;;1.20;68.42
61474;BME280;53694;49.784;30.150;2023-11-21T03:35:57;99271.05;;;1.53;67.84
61474;BME280;53694;49.784;30.150;2023-11-21T03:36:58;99277.53;;;1.74;66.62
61474;BME280;53694;49.784;30.150;2023-11-21T03:38:00;99278.03;;;1.76;65.65
61474;BME280;53694;49.784;30.150;2023-11-21T03:39:01;99276.69;;;1.65;65.49
61474;BME280;53694;49.784;30.150;2023-11-21T03:40:04;99280.73;;;1.45;65.87
61474;BME280;53694;49.784;30.150;2023-11-21T03:41:06;99279.65;;;1.23;66.48
61474;BME280;53694;49.784;30.150;2023-11-21T03:42:08;99281.53;;;1.00;67.26
61474;BME280;53694;49.784;30.150;2023-11-21T03:43:09;99286.92;;;0.78;67.84
61474;BME280;53694;49.784;30.150;2023-11-21T03:44:11;99285.77;;;0.57;68.57
61474;BME280;53694;49.784;30.150;2023-11-21T03:45:12;99276.78;;;0.34;68.96
61474;BME280;53694;49.784;30.150;2023-11-21T03:46:14;99280.72;;;0.14;69.64
61474;BME280;53694;49.784;30.150;2023-11-21T03:47:16;99279.41;;;-0.03;70.21
61474;BME280;53694;49.784;30.150;2023-11-21T03:48:17;99282.38;;;-0.18;70.68
61474;BME280;53694;49.784;30.150;2023-11-21T03:49:19;99279.98;;;-0.33;70.91
61474;BME280;53694;49.784;30.150;2023-11-21T03:50:20;99283.86;;;-0.39;71.36
61474;BME280;53694;49.784;30.150;2023-11-21T03:51:22;99282.38;;;-0.32;71.37
61474;BME280;53694;49.784;30.150;2023-11-21T03:52:24;99281.70;;;-0.10;71.26
61474;BME280;53694;49.784;30.150;2023-11-21T03:53:26;99287.32;;;0.21;70.87
61474;BME280;53694;49.784;30.150;2023-11-21T03:54:27;99284.77;;;0.53;69.93
61474;BME280;53694;49.784;30.150;2023-11-21T03:55:29;99294.30;;;0.86;69.36
61474;BME280;53694;49.784;30.150;2023-11-21T03:56:30;99288.18;;;1.17;68.27
61474;BME280;53694;49.784;30.150;2023-11-21T03:57:32;99295.67;;;1.42;67.48
61474;BME280;53694;49.784;30.150;2023-11-21T03:58:33;99286.81;;;1.50;66.71
61474;BME280;53694;49.784;30.150;2023-11-21T03:59:35;99296.16;;;1.44;66.40
61474;BME280;53694;49.784;30.150;2023-11-21T04:00:36;99292.73;;;1.30;66.66
61474;BME280;53694;49.784;30.150;2023-11-21T04:01:38;99295.62;;;1.11;67.00
61474;BME280;53694;49.784;30.150;2023-11-21T04:02:39;99294.50;;;0.90;67.27
61474;BME280;53694;49.784;30.150;2023-11-21T04:03:41;99299.56;;;0.69;67.73
61474;BME280;53694;49.784;30.150;2023-11-21T04:04:42;99292.20;;;0.47;68.24
61474;BME280;53694;49.784;30.150;2023-11-21T04:05:44;99288.80;;;0.28;68.66
61474;BME280;53694;49.784;30.150;2023-11-21T04:06:45;99291.91;;;0.07;69.13
61474;BME280;53694;49.784;30.150;2023-11-21T04:07:48;99288.51;;;-0.12;69.67
61474;BME280;53694;49.784;30.150;2023-11-21T04:08:50;99295.56;;;-0.30;70.28
61474;BME280;53694;49.784;30.150;2023-11-21T04:09:51;99293.95;;;-0.45;70.85
61474;BME280;53694;49.784;30.150;2023-11-21T04:10:53;99297.11;;;-0.57;71.29
61474;BME280;53694;49.784;30.150;2023-11-21T04:11:54;99299.89;;;-0.62;71.68
61474;BME280;53694;49.784;30.150;2023-11-21T04:12:56;99305.11;;;-0.52;71.87
61474;BME280;53694;49.784;30.150;2023-11-21T04:13:58;99298.78;;;-0.28;71.68
61474;BME280;53694;49.784;30.150;2023-11-21T04:14:59;99302.80;;;0.02;71.14
61474;BME280;53694;49.784;30.150;2023-11-21T04:16:01;99304.61;;;0.34;70.35
61474;BME280;53694;49.784;30.150;2023-11-21T04:17:02;99307.16;;;0.67;69.35
61474;BME280;53694;49.784;30.150;2023-11-21T04:18:04;99302.69;;;0.98;68.46
61474;BME280;53694;49.784;30.150;2023-11-21T04:19:05;99308.30;;;1.24;67.44
61474;BME280;53694;49.784;30.150;2023-11-21T04:20:08;99309.69;;;1.44;66.87
61474;BME280;53694;49.784;30.150;2023-11-21T04:21:10;99302.55;;;1.48;66.20
61474;BME280;53694;49.784;30.150;2023-11-21T04:22:12;99299.31;;;1.38;66.19
61474;BME280;53694;49.784;30.150;2023-11-21T04:23:13;99298.39;;;1.20;66.19
61474;BME280;53694;49.784;30.150;2023-11-21T04:24:15;99294.66;;;0.93;66.49
61474;BME280;53694;49.784;30.150;2023-11-21T04:25:17;99301.75;;;0.67;67.13
61474;BME280;53694;49.784;30.150;2023-11-21T04:26:19;99295.89;;;0.37;67.84
61474;BME280;53694;49.784;30.150;2023-11-21T04:27:20;99291.63;;;0.09;68.66
61474;BME280;53694;49.784;30.150;2023-11-21T04:28:22;99292.59;;;-0.15;69.50
61474;BME280;53694;49.784;30.150;2023-11-21T04:29:23;99290.26;;;-0.35;70.19
61474;BME280;53694;49.784;30.150;2023-11-21T04:30:25;99289.53;;;-0.55;70.91
61474;BME280;53694;49.784;30.150;2023-11-21T04:31:26;99295.17;;;-0.70;71.50
61474;BME280;53694;49.784;30.150;2023-11-21T04:32:28;99294.25;;;-0.79;72.07
61474;BME280;53694;49.784;30.150;2023-11-21T04:33:29;99292.48;;;-0.70;72.34
61474;BME280;53694;49.784;30.150;2023-11-21T04:34:31;99292.94;;;-0.49;72.39
61474;BME280;53694;49.784;30.150;2023-11-21T04:35:32;99290.00;;;-0.20;71.94
61474;BME280;53694;49.784;30.150;2023-11-21T04:36:33;99288.02;;;0.13;71.37
61474;BME280;53694;49.784;30.150;2023-11-21T04:37:35;99292.99;;;0.47;70.46
61474;BME280;53694;49.784;30.150;2023-11-21T04:38:37;99298.72;;;0.82;69.57
61474;BME280;53694;49.784;30.150;2023-11-21T04:39:38;99291.48;;;1.14;68.74
61474;BME280;53694;49.784;30.150;2023-11-21T04:40:40;99297.27;;;1.43;67.75
61474;BME280;53694;49.784;30.150;2023-11-21T04:41:41;99290.55;;;1.63;66.93
61474;BME280;53694;49.784;30.150;2023-11-21T04:42:43;99303.16;;;1.68;66.30
61474;BME280;53694;49.784;30.150;2023-11-21T04:43:44;99302.59;;;1.57;66.05
61474;BME280;53694;49.784;30.150;2023-11-21T04:44:46;99296.28;;;1.39;66.19
61474;BME280;53694;49.784;30.150;2023-11-21T04:45:47;99299.00;;;1.17;66.47
61474;BME280;53694;49.784;30.150;2023-11-21T04:46:49;99296.09;;;0.91;66.90
61474;BME280;53694;49.784;30.150;2023-11-21T04:47:50;99300.75;;;0.63;67.56
61474;BME280;53694;49.784;30.150;2023-11-21T04:48:52;99297.00;;;0.36;68.24
61474;BME280;53694;49.784;30.150;2023-11-21T04:49:53;99289.41;;;0.11;69.05
61474;BME280;53694;49.784;30.150;2023-11-21T04:50:55;99304.40;;;-0.11;69.86
61474;BME280;53694;49.784;30.150;2023-11-21T04:51:56;99300.95;;;-0.30;70.54
61474;BME280;53694;49.784;30.150;2023-11-21T04:52:58;99297.75;;;-0.46;71.22
61474;BME280;53694;49.784;30.150;2023-11-21T04:53:59;99308.48;;;-0.60;71.80
61474;BME280;53694;49.784;30.150;2023-11-21T04:55:01;99301.27;;;-0.64;72.27
61474;BME280;53694;49.784;30.150;2023-11-21T04:56:03;99315.72;;;-0.55;72.56
61474;BME280;53694;49.784;30.150;2023-11-21T04:57:05;99305.34;;;-0.34;72.50
61474;BME280;53694;49.784;30.150;2023-11-21T04:58:06;99311.01;;;-0.03;71.99
61474;BME280;53694;49.784;30.150;2023-11-21T04:59:08;99307.59;;;0.33;71.46
61474;BME280;53694;49.784;30.150;2023-11-21T05:00:10;99310.37;;;0.69;70.51
61474;BME280;53694;49.784;30.150;2023-11-21T05:01:12;99310.16;;;1.02;69.43
61474;BME280;53694;49.784;30.150;2023-11-21T05:02:13;99314.87;;;1.32;68.39
61474;BME280;53694;49.784;30.150;2023-11-21T05:03:15;99319.81;;;1.61;67.52
61474;BME280;53694;49.784;30.150;2023-11-21T05:04:16;99316.92;;;1.80;66.69
61474;BME280;53694;49.784;30.150;2023-11-21T05:05:18;99319.48;;;1.85;66.33
61474;BME280;53694;49.784;30.150;2023-11-21T05:06:19;99312.91;;;1.78;65.87
61474;BME280;53694;49.784;30.150;2023-11-21T05:07:21;99317.43;;;1.60;65.98
61474;BME280;53694;49.784;30.150;2023-11-21T05:08:22;99308.83;;;1.35;66.24
61474;BME280;53694;49.784;30.150;2023-11-21T05:09:24;99319.17;;;1.11;66.82
61474;BME280;53694;49.784;30.150;2023-11-21T05:10:26;99318.13;;;0.84;67.60
61474;BME280;53694;49.784;30.150;2023-11-21T05:11:27;99315.97;;;0.59;68.37
61474;BME280;53694;49.784;30.150;2023-11-21T05:12:31;99311.61;;;0.35;69.04
61474;BME280;53694;49.784;30.150;2023-11-21T05:13:34;99313.40;;;0.12;69.57
61474;BME280;53694;49.784;30.150;2023-11-21T05:14:36;99309.48;;;-0.09;70.37
61474;BME280;53694;49.784;30.150;2023-11-21T05:15:37;99313.38;;;-0.29;71.08
61474;BME280;53694;49.784;30.150;2023-11-21T05:16:39;99318.23;;;-0.45;71.70
61474;BME280;53694;49.784;30.150;2023-11-21T05:17:41;99323.50;;;-0.54;72.17
61474;BME280;53694;49.784;30.150;2023-11-21T05:18:42;99322.03;;;-0.46;72.46
61474;BME280;53694;49.784;30.150;2023-11-21T05:19:43;99320.58;;;-0.24;72.30
61474;BME280;53694;49.784;30.150;2023-11-21T05:20:45;99321.39;;;0.04;71.85
61474;BME280;53694;49.784;30.150;2023-11-21T05:21:47;99325.60;;;0.37;71.27
61474;BME280;53694;49.784;30.150;2023-11-21T05:22:48;99328.97;;;0.70;70.48
61474;BME280;53694;49.784;30.150;2023-11-21T05:23:50;99339.11;;;1.01;69.41
61474;BME280;53694;49.784;30.150;2023-11-21T05:24:51;99335.41;;;1.33;68.48
61474;BME280;53694;49.784;30.150;2023-11-21T05:25:53;99334.66;;;1.64;67.77